createdAt,value
2017-03-18T00:00:05.703Z,38.2
2017-03-18T00:02:07.953Z,38.2
2017-03-18T00:04:06.049Z,38.2
2017-03-18T00:06:05.778Z,38.2
2017-03-18T00:08:11.080Z,38.2
2017-03-18T00:10:11.125Z,38.2
2017-03-18T00:12:05.823Z,38.2
2017-03-18T00:14:05.828Z,38.2
2017-03-18T00:16:05.289Z,38.2
2017-03-18T00:18:05.196Z,38.2
2017-03-18T00:20:05.408Z,38.2
2017-03-18T00:22:08.553Z,38.2
2017-03-18T00:24:07.844Z,38.1
2017-03-18T00:26:05.532Z,38.1
2017-03-18T00:28:05.453Z,38.2
2017-03-18T00:30:07.940Z,38.1
2017-03-18T00:32:10.886Z,38.2
2017-03-18T00:34:18.315Z,38.1
2017-03-18T00:36:04.986Z,38.1
2017-03-18T00:38:05.627Z,38
2017-03-18T00:40:05.424Z,37.9
2017-03-18T00:42:07.635Z,37.9
2017-03-18T00:44:05.323Z,37.8
2017-03-18T00:46:05.353Z,37.9
2017-03-18T00:48:05.571Z,37.9
2017-03-18T00:50:08.345Z,37.9
2017-03-18T00:52:07.703Z,37.7
2017-03-18T00:54:15.536Z,37.7
2017-03-18T00:56:08.298Z,37.8
2017-03-18T00:58:05.789Z,37.8
2017-03-18T01:00:05.457Z,37.8
2017-03-18T01:02:05.225Z,37.8
2017-03-18T01:04:05.588Z,37.7
2017-03-18T01:06:05.327Z,37.7
2017-03-18T01:08:12.636Z,37.7
2017-03-18T01:10:05.476Z,37.7
2017-03-18T01:12:05.693Z,37.7
2017-03-18T01:14:05.407Z,37.7
2017-03-18T01:16:05.495Z,37.6
2017-03-18T01:18:06.431Z,37.6
2017-03-18T01:20:05.128Z,37.7
2017-03-18T01:22:06.084Z,37.6
2017-03-18T01:24:05.772Z,37.6
2017-03-18T01:26:05.523Z,37.6
2017-03-18T01:28:05.350Z,37.6
2017-03-18T01:30:05.022Z,37.6
2017-03-18T01:32:05.698Z,37.5
2017-03-18T01:34:05.702Z,37.6
2017-03-18T01:36:05.389Z,37.6
2017-03-18T01:38:05.117Z,37.6
2017-03-18T01:40:05.965Z,37.5
2017-03-18T01:42:05.630Z,37.5
2017-03-18T01:44:05.336Z,37.5
2017-03-18T01:46:05.251Z,37.5
2017-03-18T01:48:08.532Z,37.5
2017-03-18T01:50:05.585Z,37.5
2017-03-18T01:52:10.684Z,37.4
2017-03-18T01:54:05.392Z,37.4
2017-03-18T01:56:07.625Z,37.4
2017-03-18T01:58:08.075Z,37.4
2017-03-18T02:00:05.976Z,37.4
2017-03-18T02:02:05.656Z,37.5
2017-03-18T02:04:12.888Z,37.4
2017-03-18T02:06:07.798Z,37.4
2017-03-18T02:08:08.541Z,37.4
2017-03-18T02:10:06.071Z,37.4
2017-03-18T02:12:05.344Z,37.4
2017-03-18T02:14:05.033Z,37.4
2017-03-18T02:16:06.027Z,37.4
2017-03-18T02:18:05.928Z,37.4
2017-03-18T02:20:05.181Z,37.1
2017-03-18T02:22:05.588Z,37.4
2017-03-18T02:24:05.412Z,37.3
2017-03-18T02:26:07.711Z,37.3
2017-03-18T02:28:06.195Z,37.3
2017-03-18T02:30:05.469Z,37.3
2017-03-18T02:32:05.128Z,37.3
2017-03-18T02:34:06.182Z,37.3
2017-03-18T02:36:05.860Z,37.3
2017-03-18T02:38:06.466Z,37.3
2017-03-18T02:40:05.482Z,37.3
2017-03-18T02:42:05.193Z,37.3
2017-03-18T02:44:05.918Z,37.8
2017-03-18T02:46:05.915Z,37.3
2017-03-18T02:48:05.608Z,37.3
2017-03-18T02:50:05.457Z,37.3
2017-03-18T02:52:05.495Z,37.3
2017-03-18T02:54:08.514Z,37.3
2017-03-18T02:56:05.224Z,37.3
2017-03-18T02:58:06.249Z,37.3
2017-03-18T03:00:06.003Z,37.3
2017-03-18T03:02:05.189Z,37.3
2017-03-18T03:04:08.767Z,37.3
2017-03-18T03:06:05.530Z,37.1
2017-03-18T03:08:10.285Z,37.1
2017-03-18T03:10:05.484Z,37.3
2017-03-18T03:12:05.195Z,37.3
2017-03-18T03:14:06.053Z,37.3
2017-03-18T03:16:05.907Z,37.3
2017-03-18T03:18:05.818Z,37.3
2017-03-18T03:20:08.058Z,37.3
2017-03-18T03:22:05.946Z,37.1
2017-03-18T03:24:05.195Z,37.3
2017-03-18T03:26:05.685Z,37.3
2017-03-18T03:28:05.555Z,37.3
2017-03-18T03:30:05.351Z,37.3
2017-03-18T03:32:07.595Z,37.3
2017-03-18T03:34:10.571Z,37.2
2017-03-18T03:36:05.301Z,37.2
2017-03-18T03:38:05.015Z,37.2
2017-03-18T03:40:08.376Z,37.2
2017-03-18T03:42:12.820Z,37.2
2017-03-18T03:44:05.543Z,37.1
2017-03-18T03:46:08.035Z,37.2
2017-03-18T03:48:05.755Z,37
2017-03-18T03:50:05.551Z,37.2
2017-03-18T03:52:05.505Z,37.2
2017-03-18T03:54:05.134Z,37.2
2017-03-18T03:56:05.374Z,37.2
2017-03-18T03:58:10.524Z,37.2
2017-03-18T04:00:13.010Z,37.1
2017-03-18T04:02:05.741Z,37.1
2017-03-18T04:04:08.346Z,37.2
2017-03-18T04:06:07.584Z,37.2
2017-03-18T04:08:05.312Z,37.2
2017-03-18T04:10:05.273Z,37.1
2017-03-18T04:12:06.009Z,37.2
2017-03-18T04:14:05.925Z,37.2
2017-03-18T04:16:06.637Z,37.2
2017-03-18T04:18:08.134Z,37.2
2017-03-18T04:20:05.461Z,36.9
2017-03-18T04:22:07.942Z,37.1
2017-03-18T04:24:08.332Z,37.2
2017-03-18T04:26:05.041Z,36.9
2017-03-18T04:28:06.158Z,37.1
2017-03-18T04:30:05.761Z,37.1
2017-03-18T04:32:05.462Z,36.9
2017-03-18T04:34:07.900Z,36.9
2017-03-18T04:36:05.782Z,37.1
2017-03-18T04:38:08.042Z,37.1
2017-03-18T04:40:06.021Z,36.9
2017-03-18T04:42:05.337Z,37.1
2017-03-18T04:44:05.163Z,37.1
2017-03-18T04:46:06.224Z,37.1
2017-03-18T04:48:05.895Z,37.1
2017-03-18T04:50:05.664Z,37.1
2017-03-18T04:52:05.732Z,36.9
2017-03-18T04:54:05.451Z,37.1
2017-03-18T04:56:05.211Z,37.1
2017-03-18T04:58:05.276Z,36.8
2017-03-18T05:00:08.481Z,37.1
2017-03-18T05:02:05.924Z,36.9
2017-03-18T05:04:06.103Z,37.1
2017-03-18T05:06:05.967Z,37.1
2017-03-18T05:08:08.299Z,37
2017-03-18T05:10:08.210Z,37.1
2017-03-18T05:12:13.554Z,37
2017-03-18T05:14:05.208Z,36.8
2017-03-18T05:16:06.050Z,37
2017-03-18T05:18:08.270Z,36.8
2017-03-18T05:20:08.045Z,37
2017-03-18T05:22:06.177Z,36.8
2017-03-18T05:24:05.836Z,37
2017-03-18T05:26:08.483Z,37
2017-03-18T05:28:05.347Z,37
2017-03-18T05:30:12.583Z,36.8
2017-03-18T05:32:07.770Z,37
2017-03-18T05:34:05.803Z,37
2017-03-18T05:36:05.037Z,37
2017-03-18T05:38:05.690Z,37
2017-03-18T05:40:05.500Z,37
2017-03-18T05:42:05.276Z,37
2017-03-18T05:44:06.092Z,36.8
2017-03-18T05:46:06.912Z,37
2017-03-18T05:48:05.665Z,37
2017-03-18T05:50:05.592Z,37
2017-03-18T05:52:06.395Z,37
2017-03-18T05:54:05.161Z,37.5
2017-03-18T05:56:11.112Z,36.7
2017-03-18T05:58:06.094Z,36.7
2017-03-18T06:00:06.745Z,37
2017-03-18T06:02:07.983Z,36.9
2017-03-18T06:04:05.905Z,36.9
2017-03-18T06:06:05.814Z,37
2017-03-18T06:08:07.733Z,37
2017-03-18T06:10:08.327Z,37
2017-03-18T06:12:07.560Z,37
2017-03-18T06:14:05.361Z,37
2017-03-18T06:16:05.223Z,37
2017-03-18T06:18:05.178Z,36.9
2017-03-18T06:20:05.865Z,37
2017-03-18T06:22:06.201Z,37
2017-03-18T06:24:06.206Z,36.7
2017-03-18T06:26:05.971Z,36.9
2017-03-18T06:28:06.065Z,37
2017-03-18T06:30:05.849Z,36.9
2017-03-18T06:32:05.090Z,36.9
2017-03-18T06:34:06.178Z,37
2017-03-18T06:36:05.504Z,37
2017-03-18T06:38:05.971Z,37
2017-03-18T06:40:06.041Z,37
2017-03-18T06:42:05.754Z,36.9
2017-03-18T06:44:05.488Z,36.9
2017-03-18T06:46:12.913Z,36.9
2017-03-18T06:48:05.724Z,36.9
2017-03-18T06:50:05.488Z,36.9
2017-03-18T06:52:08.080Z,36.9
2017-03-18T06:54:08.535Z,36.9
2017-03-18T06:56:05.205Z,36.9
2017-03-18T06:58:06.104Z,36.9
2017-03-18T07:00:05.963Z,37
2017-03-18T07:02:06.654Z,36.8
2017-03-18T07:04:05.661Z,36.9
2017-03-18T07:06:05.314Z,36.8
2017-03-18T07:08:05.506Z,36.8
2017-03-18T07:10:05.593Z,36.8
2017-03-18T07:12:08.045Z,36.8
2017-03-18T07:14:05.226Z,36.8
2017-03-18T07:16:06.047Z,36.9
2017-03-18T07:18:05.940Z,36.8
2017-03-18T07:20:05.833Z,36.9
2017-03-18T07:22:05.956Z,36.9
2017-03-18T07:24:08.178Z,37.2
2017-03-18T07:26:06.057Z,37.2
2017-03-18T07:28:05.910Z,37
2017-03-18T07:30:05.577Z,37
2017-03-18T07:32:07.879Z,36.9
2017-03-18T07:34:05.458Z,36.9
2017-03-18T07:36:05.373Z,36.9
2017-03-18T07:38:05.885Z,36.9
2017-03-18T07:40:05.739Z,36.8
2017-03-18T07:42:06.218Z,36.8
2017-03-18T07:44:05.416Z,36.9
2017-03-18T07:46:05.360Z,36.8
2017-03-18T07:48:05.079Z,37
2017-03-18T07:50:05.823Z,36.8
2017-03-18T07:52:17.791Z,36.7
2017-03-18T07:54:05.436Z,36.7
2017-03-18T07:56:05.135Z,36.6
2017-03-18T07:58:06.091Z,36.7
2017-03-18T08:00:05.912Z,36.6
2017-03-18T08:02:08.142Z,36.7
2017-03-18T08:04:05.935Z,36.7
2017-03-18T08:06:05.671Z,36.7
2017-03-18T08:08:05.813Z,36.7
2017-03-18T08:10:05.691Z,36.6
2017-03-18T08:12:08.608Z,36.6
2017-03-18T08:14:05.970Z,36.6
2017-03-18T08:16:06.501Z,36.6
2017-03-18T08:18:07.918Z,36.6
2017-03-18T08:20:05.668Z,36.6
2017-03-18T08:22:05.619Z,36.6
2017-03-18T08:24:07.870Z,36.6
2017-03-18T08:26:05.512Z,36.6
2017-03-18T08:28:08.438Z,36.5
2017-03-18T08:30:05.404Z,36.5
2017-03-18T08:32:05.092Z,36.6
2017-03-18T08:34:05.967Z,36.6
2017-03-18T08:36:05.959Z,36.5
2017-03-18T08:38:05.785Z,36.6
2017-03-18T08:40:05.696Z,36.5
2017-03-18T08:42:07.941Z,36.5
2017-03-18T08:44:05.186Z,36.5
2017-03-18T08:46:05.810Z,36.5
2017-03-18T08:48:13.384Z,36.5
2017-03-18T08:50:05.488Z,36.5
2017-03-18T08:52:05.331Z,36.5
2017-03-18T08:54:08.165Z,36.5
2017-03-18T08:56:05.913Z,36.5
2017-03-18T08:58:05.752Z,36.5
2017-03-18T09:00:05.091Z,36.5
2017-03-18T09:02:06.110Z,36.5
2017-03-18T09:04:06.193Z,36.5
2017-03-18T09:06:05.898Z,36.5
2017-03-18T09:08:05.096Z,36.5
2017-03-18T09:10:06.190Z,36.5
2017-03-18T09:12:05.124Z,36.5
2017-03-18T09:14:06.155Z,36.5
2017-03-18T09:16:14.233Z,36.5
2017-03-18T09:18:05.304Z,36.5
2017-03-18T09:20:07.823Z,36.5
2017-03-18T09:22:08.474Z,36.4
2017-03-18T09:24:07.713Z,36.5
2017-03-18T09:26:05.559Z,36.5
2017-03-18T09:28:06.196Z,36.4
2017-03-18T09:30:05.978Z,36.2
2017-03-18T09:32:08.325Z,36.5
2017-03-18T09:34:05.481Z,36.2
2017-03-18T09:36:05.187Z,36.2
2017-03-18T09:38:05.986Z,36.2
2017-03-18T09:40:05.958Z,36.5
2017-03-18T09:42:07.102Z,36.4
2017-03-18T09:44:05.811Z,36.4
2017-03-18T09:46:08.454Z,36.4
2017-03-18T09:48:05.195Z,36.2
2017-03-18T09:50:06.026Z,36.5
2017-03-18T09:52:06.064Z,36.4
2017-03-18T09:54:05.855Z,36.2
2017-03-18T09:56:05.877Z,36.2
2017-03-18T09:58:06.136Z,36.2
2017-03-18T10:00:05.861Z,36.2
2017-03-18T10:02:05.641Z,36.2
2017-03-18T10:04:11.804Z,36.2
2017-03-18T10:06:05.681Z,36.2
2017-03-18T10:08:05.442Z,36.4
2017-03-18T10:10:05.976Z,36.5
2017-03-18T10:12:05.708Z,36.5
2017-03-18T10:14:10.719Z,36.5
2017-03-18T10:16:05.433Z,36.5
2017-03-18T10:18:08.409Z,36.6
2017-03-18T10:20:09.145Z,36.6
2017-03-18T10:22:05.661Z,36.6
2017-03-18T10:24:05.430Z,36.7
2017-03-18T10:26:05.148Z,36.9
2017-03-18T10:28:05.936Z,36.9
2017-03-18T10:30:05.674Z,36.9
2017-03-18T10:32:06.015Z,36.9
2017-03-18T10:34:06.040Z,36.9
2017-03-18T10:36:05.719Z,36.9
2017-03-18T10:38:10.703Z,37
2017-03-18T10:40:05.682Z,37
2017-03-18T10:42:06.623Z,36.9
2017-03-18T10:44:05.624Z,37
2017-03-18T10:46:06.069Z,37
2017-03-18T10:48:05.782Z,37
2017-03-18T10:50:05.691Z,37.2
2017-03-18T10:52:05.538Z,37.1
2017-03-18T10:54:05.586Z,37.1
2017-03-18T10:56:05.302Z,37.1
2017-03-18T10:58:06.101Z,36.8
2017-03-18T11:00:05.756Z,37.1
2017-03-18T11:02:05.441Z,37
2017-03-18T11:04:07.889Z,37
2017-03-18T11:06:05.558Z,36.8
2017-03-18T11:08:05.289Z,37
2017-03-18T11:10:05.639Z,37
2017-03-18T11:12:07.925Z,36.8
2017-03-18T11:14:05.627Z,37
2017-03-18T11:16:06.167Z,36.8
2017-03-18T11:18:08.097Z,36.8
2017-03-18T11:20:13.602Z,36.7
2017-03-18T11:22:05.585Z,36.7
2017-03-18T11:24:10.382Z,36.8
2017-03-18T11:26:05.419Z,36.8
2017-03-18T11:28:06.242Z,37
2017-03-18T11:30:05.561Z,37
2017-03-18T11:32:05.280Z,37
2017-03-18T11:34:12.558Z,37
2017-03-18T11:36:05.758Z,37
2017-03-18T11:38:11.402Z,37
2017-03-18T11:40:15.575Z,36.8
2017-03-18T11:42:07.973Z,36.8
2017-03-18T11:44:05.212Z,37
2017-03-18T11:46:06.107Z,36.7
2017-03-18T11:48:05.923Z,36.8
2017-03-18T11:50:06.089Z,37
2017-03-18T11:52:10.108Z,36.8
2017-03-18T11:54:09.063Z,36.8
2017-03-18T11:56:05.904Z,36.6
2017-03-18T11:58:06.216Z,36.8
2017-03-18T12:00:36.732Z,36.8
2017-03-18T12:02:07.192Z,36.7
2017-03-18T12:04:31.385Z,36.3
2017-03-18T12:06:07.012Z,36.3
2017-03-18T12:08:14.381Z,36.7
2017-03-18T12:10:05.606Z,36.7
2017-03-18T12:12:07.835Z,37
2017-03-18T12:14:06.618Z,37
2017-03-18T12:16:06.069Z,37
2017-03-18T13:14:05.583Z,37.2
2017-03-18T13:16:06.082Z,37
2017-03-18T13:18:08.563Z,37.4
2017-03-18T13:20:05.308Z,37.1
2017-03-18T13:22:10.979Z,37.2
2017-03-18T13:24:05.729Z,37.2
2017-03-18T13:26:05.949Z,37.2
2017-03-18T13:28:08.998Z,37.2
2017-03-18T13:30:05.793Z,37.2
2017-03-18T13:32:05.527Z,37.2
2017-03-18T13:34:05.698Z,37.2
2017-03-18T13:36:05.433Z,37.2
2017-03-18T13:38:12.793Z,37.2
2017-03-18T13:40:09.452Z,37.2
2017-03-18T13:42:09.342Z,37.5
2017-03-18T13:44:09.066Z,37.2
2017-03-18T13:46:05.929Z,37.2
2017-03-18T13:48:05.705Z,37.2
2017-03-18T13:50:08.071Z,37.1
2017-03-18T13:52:06.633Z,37.1
2017-03-18T13:54:05.421Z,37.1
2017-03-18T13:56:07.796Z,37.1
2017-03-18T13:58:06.303Z,37.1
2017-03-18T14:00:05.676Z,37.5
2017-03-18T14:02:05.543Z,37.2
2017-03-18T14:04:05.725Z,37.4
2017-03-18T14:06:05.972Z,37.4
2017-03-18T14:10:06.393Z,37.5
2017-03-18T14:12:05.660Z,38
2017-03-18T14:14:08.987Z,37.5
2017-03-18T14:16:06.094Z,37.8
2017-03-18T14:18:05.592Z,37.5
2017-03-18T14:20:05.304Z,37.5
2017-03-18T14:22:06.177Z,37.5
2017-03-18T14:24:06.856Z,37.5
2017-03-18T14:26:05.546Z,37.5
2017-03-18T14:28:08.180Z,37.5
2017-03-18T14:30:06.291Z,37.5
2017-03-18T14:32:05.998Z,37.5
2017-03-18T14:34:06.031Z,37.4
2017-03-18T14:36:05.748Z,37.5
2017-03-18T14:38:08.161Z,37.5
2017-03-18T14:40:06.036Z,37.5
2017-03-18T14:42:08.237Z,37.5
2017-03-18T14:44:05.949Z,37.4
2017-03-18T14:46:06.089Z,37.4
2017-03-18T14:48:08.384Z,37.5
2017-03-18T14:50:05.169Z,37.5
2017-03-18T14:52:08.818Z,37.5
2017-03-18T14:54:08.088Z,37.5
2017-03-18T14:56:05.776Z,37.5
2017-03-18T14:58:05.781Z,37.4
2017-03-18T15:00:05.475Z,37.5
2017-03-18T15:02:08.002Z,37.4
2017-03-18T15:04:08.971Z,37.5
2017-03-18T15:06:05.662Z,37.4
2017-03-18T15:08:07.905Z,37.6
2017-03-18T15:10:08.549Z,37.5
2017-03-18T15:12:07.798Z,37.5
2017-03-18T15:14:05.549Z,37.5
2017-03-18T15:16:09.074Z,37.5
2017-03-18T15:18:06.328Z,37.5
2017-03-18T15:20:08.324Z,37.5
2017-03-18T15:22:07.325Z,37.5
2017-03-18T15:24:05.005Z,37.5
2017-03-18T15:26:08.210Z,37.5
2017-03-18T15:28:06.202Z,37.5
2017-03-18T15:30:08.018Z,37.5
2017-03-18T15:32:05.750Z,37.5
2017-03-18T15:34:11.605Z,37.5
2017-03-18T15:36:07.188Z,37.3
2017-03-18T15:38:06.031Z,37.3
2017-03-18T15:40:06.147Z,37.5
2017-03-18T15:42:08.611Z,37.3
2017-03-18T15:44:10.105Z,37.6
2017-03-18T15:46:11.160Z,37.5
2017-03-18T15:48:18.542Z,37.8
2017-03-18T15:50:05.354Z,37.9
2017-03-18T15:52:05.570Z,37.8
2017-03-18T15:54:05.411Z,37.8
2017-03-18T15:56:07.683Z,37.8
2017-03-18T15:58:06.203Z,37.6
2017-03-18T16:00:05.450Z,37.8
2017-03-18T16:02:08.914Z,37.9
2017-03-18T16:04:05.853Z,37.7
2017-03-18T16:06:18.803Z,37.8
2017-03-18T16:08:05.185Z,37.8
2017-03-18T16:10:06.639Z,38
2017-03-18T16:12:10.577Z,38
2017-03-18T16:14:05.332Z,37.8
2017-03-18T16:16:05.729Z,38
2017-03-18T16:18:05.695Z,38.1
2017-03-18T16:20:08.486Z,38.1
2017-03-18T16:22:05.572Z,37.9
2017-03-18T16:24:05.291Z,38.1
2017-03-18T16:26:05.057Z,38.1
2017-03-18T16:28:06.040Z,38.1
2017-03-18T16:30:05.714Z,37.9
2017-03-18T16:32:05.389Z,37.9
2017-03-18T16:34:05.902Z,37.9
2017-03-18T16:36:05.138Z,38
2017-03-18T16:38:12.970Z,37.9
2017-03-18T16:40:08.447Z,37.9
2017-03-18T16:42:05.167Z,38
2017-03-18T16:44:05.505Z,38.3
2017-03-18T16:46:07.065Z,38.2
2017-03-18T16:48:05.749Z,38
2017-03-18T16:50:05.672Z,38
2017-03-18T16:52:08.191Z,37.9
2017-03-18T16:54:05.781Z,37.9
2017-03-18T16:56:05.476Z,38
2017-03-18T16:58:05.701Z,37.8
2017-03-18T17:00:07.967Z,37.8
2017-03-18T17:02:05.635Z,37.8
2017-03-18T17:04:05.662Z,37.8
2017-03-18T17:06:05.372Z,37.9
2017-03-18T17:08:05.203Z,37.9
2017-03-18T17:10:08.830Z,38
2017-03-18T17:12:05.596Z,38
2017-03-18T17:14:05.843Z,38.1
2017-03-18T17:16:05.322Z,38.1
2017-03-18T17:18:07.483Z,38.1
2017-03-18T17:20:07.846Z,38.5
2017-03-18T17:22:10.573Z,38.5
2017-03-18T17:24:05.956Z,38.6
2017-03-18T17:26:06.354Z,38.6
2017-03-18T17:28:07.716Z,38.7
2017-03-18T17:30:05.357Z,38.5
2017-03-18T17:32:05.336Z,38.8
2017-03-18T17:34:05.198Z,38.8
2017-03-18T17:36:08.378Z,38.8
2017-03-18T17:38:05.071Z,38.8
2017-03-18T17:40:07.129Z,38.8
2017-03-18T17:42:06.000Z,38.8
2017-03-18T17:44:05.709Z,38.6
2017-03-18T17:46:06.713Z,38.8
2017-03-18T17:48:07.994Z,38.6
2017-03-18T17:50:05.669Z,38.6
2017-03-18T17:52:05.757Z,38.8
2017-03-18T17:54:07.586Z,38.8
2017-03-18T17:56:05.885Z,38.6
2017-03-18T17:58:06.282Z,38.6
2017-03-18T18:00:06.054Z,38.6
2017-03-18T18:02:10.841Z,38.6
2017-03-18T18:04:05.735Z,38.8
2017-03-18T18:06:05.115Z,38.6
2017-03-18T18:08:05.857Z,38.6
2017-03-18T18:10:06.231Z,38.6
2017-03-18T18:12:08.274Z,38.6
2017-03-18T18:14:05.259Z,38.6
2017-03-18T18:16:10.924Z,38.6
2017-03-18T18:18:07.089Z,38.6
2017-03-18T18:20:07.882Z,38.6
2017-03-18T18:22:11.525Z,38.6
2017-03-18T18:24:05.199Z,38.6
2017-03-18T18:26:08.461Z,38.6
2017-03-18T18:28:12.365Z,38.6
2017-03-18T18:30:11.282Z,38.6
2017-03-18T18:32:11.596Z,38.6
2017-03-18T18:34:07.676Z,38.6
2017-03-18T18:36:07.300Z,38.6
2017-03-18T18:42:12.024Z,38.6
2017-03-18T18:44:05.432Z,38.6
2017-03-18T18:46:13.063Z,38.6
2017-03-18T18:48:10.498Z,38.6
2017-03-18T18:50:05.643Z,38.4
2017-03-18T18:52:08.280Z,38.6
2017-03-18T18:54:05.889Z,38.6
2017-03-18T18:56:05.555Z,38.6
2017-03-18T18:58:06.413Z,38.6
2017-03-18T19:00:10.367Z,38.6
2017-03-18T19:02:05.684Z,38.6
2017-03-18T19:04:05.407Z,38.6
2017-03-18T19:06:09.067Z,38.4
2017-03-18T19:08:07.965Z,38.4
2017-03-18T19:10:05.698Z,38.6
2017-03-18T19:12:05.746Z,38.4
2017-03-18T19:14:05.559Z,38.4
2017-03-18T19:16:05.298Z,38.6
2017-03-18T19:18:08.188Z,38.6
2017-03-18T19:20:07.662Z,38.6
2017-03-18T19:22:05.570Z,38.6
2017-03-18T19:24:05.610Z,38.4
2017-03-18T19:26:07.866Z,38.4
2017-03-18T19:28:05.037Z,38.4
2017-03-18T19:30:06.953Z,38.4
2017-03-18T19:32:05.760Z,38.6
2017-03-18T19:34:07.969Z,38.4
2017-03-18T19:36:05.999Z,38.4
2017-03-18T19:38:08.385Z,38.4
2017-03-18T19:40:05.084Z,38.6
2017-03-18T19:42:06.539Z,38.6
2017-03-18T19:44:05.289Z,38.4
2017-03-18T19:46:05.210Z,38.5
2017-03-18T19:48:06.090Z,38.4
2017-03-18T19:50:06.127Z,38.4
2017-03-18T19:52:05.825Z,38.4
2017-03-18T19:54:05.850Z,38.4
2017-03-18T19:56:05.538Z,38.4
2017-03-18T19:58:05.694Z,38.4
2017-03-18T20:00:05.755Z,38.4
2017-03-18T20:02:05.533Z,38.4
2017-03-18T20:04:05.365Z,38.4
2017-03-18T20:06:05.426Z,38.4
2017-03-18T20:08:07.651Z,38.4
2017-03-18T20:10:05.414Z,38.4
2017-03-18T20:12:06.229Z,38.4
2017-03-18T20:14:05.468Z,38.6
2017-03-18T20:16:08.810Z,38.4
2017-03-18T20:18:06.143Z,38.4
2017-03-18T20:20:05.831Z,38.4
2017-03-18T20:22:05.756Z,38.4
2017-03-18T20:24:05.600Z,38.4
2017-03-18T20:26:05.403Z,38.4
2017-03-18T20:28:05.187Z,38.4
2017-03-18T20:30:06.157Z,38.4
2017-03-18T20:32:05.559Z,38.4
2017-03-18T20:34:05.232Z,38.4
2017-03-18T20:36:05.729Z,38.4
2017-03-18T20:38:06.317Z,38.4
2017-03-18T20:40:05.109Z,38.4
2017-03-18T20:42:08.278Z,38.4
2017-03-18T20:44:05.659Z,38.4
2017-03-18T20:46:05.350Z,38.4
2017-03-18T20:48:08.511Z,38.6
2017-03-18T20:50:10.381Z,38.4
2017-03-18T20:52:05.088Z,38.4
2017-03-18T20:54:06.086Z,38.4
2017-03-18T20:56:05.329Z,38.4
2017-03-18T20:58:05.070Z,38.4
2017-03-18T21:00:08.786Z,38.4
2017-03-18T21:02:05.467Z,38.6
2017-03-18T21:04:05.250Z,38.4
2017-03-18T21:06:06.778Z,38.4
2017-03-18T21:08:05.444Z,38.4
2017-03-18T21:10:05.854Z,38.4
2017-03-18T21:12:05.855Z,38.4
2017-03-18T21:14:05.662Z,38.4
2017-03-18T21:16:05.514Z,38.3
2017-03-18T21:18:05.826Z,38.3
2017-03-18T21:20:05.968Z,38.4
2017-03-18T21:22:05.631Z,38.3
2017-03-18T21:24:05.485Z,38.2
2017-03-18T21:26:05.427Z,38.3
2017-03-18T21:28:05.321Z,38.4
2017-03-18T21:30:05.823Z,38.2
2017-03-18T21:32:10.548Z,38.4
2017-03-18T21:34:10.499Z,38.2
2017-03-18T21:36:05.502Z,38.3
2017-03-18T21:38:07.803Z,38.3
2017-03-18T21:40:05.053Z,38.3
2017-03-18T21:42:10.570Z,38.3
2017-03-18T21:44:07.824Z,38.4
2017-03-18T21:46:05.639Z,38.3
2017-03-18T21:48:05.500Z,38.2
2017-03-18T21:50:07.721Z,38.2
2017-03-18T21:52:05.704Z,38.1
2017-03-18T21:54:05.593Z,38.1
2017-03-18T21:56:05.352Z,38.1
2017-03-18T21:58:10.272Z,38.1
2017-03-18T22:00:05.786Z,38.1
2017-03-18T22:02:08.061Z,38.1
2017-03-18T22:04:08.376Z,38.1
2017-03-18T22:06:05.539Z,38.1
2017-03-18T22:08:05.200Z,38.1
2017-03-18T22:10:05.879Z,38.1
2017-03-18T22:12:05.821Z,38.1
2017-03-18T22:14:07.783Z,38.1
2017-03-18T22:16:10.594Z,38.1
2017-03-18T22:18:05.810Z,38.1
2017-03-18T22:20:05.217Z,38.1
2017-03-18T22:22:05.146Z,38.1
2017-03-18T22:24:06.396Z,38.1
2017-03-18T22:26:05.109Z,38.1
2017-03-18T22:28:05.998Z,38
2017-03-18T22:30:06.022Z,38.1
2017-03-18T22:32:08.324Z,38.1
2017-03-18T22:34:05.205Z,38.1
2017-03-18T22:36:06.273Z,38.1
2017-03-18T22:38:05.560Z,38
2017-03-18T22:40:07.787Z,37.9
2017-03-18T22:42:05.320Z,37.9
2017-03-18T22:44:08.793Z,37.9
2017-03-18T22:46:08.172Z,38
2017-03-18T22:48:06.309Z,38
2017-03-18T22:50:05.178Z,38
2017-03-18T22:52:05.430Z,37.9
2017-03-18T22:54:10.334Z,37.9
2017-03-18T22:56:05.307Z,37.9
2017-03-18T22:58:05.385Z,37.9
2017-03-18T23:00:11.781Z,37.9
2017-03-18T23:02:05.770Z,37.9
2017-03-18T23:04:05.461Z,37.9
2017-03-18T23:06:06.059Z,37.9
2017-03-18T23:08:05.747Z,37.9
2017-03-18T23:10:05.452Z,31.5
2017-03-18T23:12:10.587Z,37.9
2017-03-18T23:14:05.360Z,37.9
2017-03-18T23:16:10.653Z,37.9
2017-03-18T23:18:05.735Z,37.9
2017-03-18T23:20:06.716Z,37.9
2017-03-18T23:22:05.847Z,37.9
2017-03-18T23:24:17.644Z,37.9
2017-03-18T23:26:05.538Z,37.9
2017-03-18T23:28:05.251Z,37.9
2017-03-18T23:30:13.521Z,37.9
2017-03-18T23:32:07.987Z,37.8
2017-03-18T23:34:05.866Z,37.8
2017-03-18T23:36:05.917Z,37.8
2017-03-18T23:38:05.686Z,37.8
2017-03-18T23:40:07.921Z,37.8
2017-03-18T23:42:06.028Z,37.8
2017-03-18T23:44:05.723Z,37.8
2017-03-18T23:46:08.521Z,37.8
2017-03-18T23:48:08.896Z,37.9
2017-03-18T23:50:06.504Z,37.8
2017-03-18T23:52:07.912Z,37.8
2017-03-18T23:54:05.783Z,37.8
2017-03-18T23:56:05.471Z,37.8
2017-03-18T23:58:07.763Z,37.8
